sensor_id;sensor_type;location;lat;lon;timestamp;P1;durP1;ratioP1;P2;durP2;ratioP2
20348;SDS011;10332;50.208;18.988;2022-11-04T00:01:43;17.85;;;10.02;;
20348;SDS011;10332;50.208;18.988;2022-11-04T00:04:13;17.42;;;9.80;;
20348;SDS011;10332;50.208;18.988;2022-11-04T00:06:43;15.55;;;9.52;;
20348;SDS011;10332;50.208;18.988;2022-11-04T00:09:12;17.73;;;10.13;;
20348;SDS011;10332;50.208;18.988;2022-11-04T00:11:57;15.60;;;9.32;;
20348;SDS011;10332;50.208;18.988;2022-11-04T00:14:44;15.98;;;10.02;;
20348;SDS011;10332;50.208;18.988;2022-11-04T00:17:11;18.25;;;10.55;;
20348;SDS011;10332;50.208;18.988;2022-11-04T00:19:45;16.42;;;10.27;;
20348;SDS011;10332;50.208;18.988;2022-11-04T00:22:37;17.15;;;10.05;;
20348;SDS011;10332;50.208;18.988;2022-11-04T00:25:26;15.77;;;9.68;;
20348;SDS011;10332;50.208;18.988;2022-11-04T00:28:13;21.30;;;11.45;;
20348;SDS011;10332;50.208;18.988;2022-11-04T00:31:03;17.90;;;10.30;;
20348;SDS011;10332;50.208;18.988;2022-11-04T00:33:53;19.38;;;10.63;;
20348;SDS011;10332;50.208;18.988;2022-11-04T00:36:24;19.15;;;10.82;;
20348;SDS011;10332;50.208;18.988;2022-11-04T00:38:52;18.48;;;10.90;;
20348;SDS011;10332;50.208;18.988;2022-11-04T00:41:19;16.98;;;11.35;;
20348;SDS011;10332;50.208;18.988;2022-11-04T00:44:01;18.70;;;11.43;;
20348;SDS011;10332;50.208;18.988;2022-11-04T00:46:31;18.65;;;10.57;;
20348;SDS011;10332;50.208;18.988;2022-11-04T00:49:00;17.38;;;9.48;;
20348;SDS011;10332;50.208;18.988;2022-11-04T00:51:28;19.20;;;10.07;;
20348;SDS011;10332;50.208;18.988;2022-11-04T00:53:55;16.30;;;9.95;;
20348;SDS011;10332;50.208;18.988;2022-11-04T00:56:26;17.20;;;10.07;;
20348;SDS011;10332;50.208;18.988;2022-11-04T00:58:53;15.75;;;9.07;;
20348;SDS011;10332;50.208;18.988;2022-11-04T01:01:21;16.00;;;9.70;;
20348;SDS011;10332;50.208;18.988;2022-11-04T01:03:49;14.82;;;9.45;;
20348;SDS011;10332;50.208;18.988;2022-11-04T01:06:19;16.98;;;9.20;;
20348;SDS011;10332;50.208;18.988;2022-11-04T01:08:53;17.83;;;9.55;;
20348;SDS011;10332;50.208;18.988;2022-11-04T01:11:26;14.05;;;9.18;;
20348;SDS011;10332;50.208;18.988;2022-11-04T01:13:55;15.38;;;9.02;;
20348;SDS011;10332;50.208;18.988;2022-11-04T01:16:24;14.30;;;9.05;;
20348;SDS011;10332;50.208;18.988;2022-11-04T01:18:53;15.68;;;9.05;;
20348;SDS011;10332;50.208;18.988;2022-11-04T01:21:21;14.43;;;8.75;;
20348;SDS011;10332;50.208;18.988;2022-11-04T01:23:49;14.88;;;8.82;;
20348;SDS011;10332;50.208;18.988;2022-11-04T01:26:17;15.20;;;8.73;;
20348;SDS011;10332;50.208;18.988;2022-11-04T01:28:50;14.73;;;8.88;;
20348;SDS011;10332;50.208;18.988;2022-11-04T01:31:21;14.40;;;8.43;;
20348;SDS011;10332;50.208;18.988;2022-11-04T01:33:52;16.13;;;9.05;;
20348;SDS011;10332;50.208;18.988;2022-11-04T01:36:21;15.10;;;8.75;;
20348;SDS011;10332;50.208;18.988;2022-11-04T01:38:50;16.55;;;8.45;;
20348;SDS011;10332;50.208;18.988;2022-11-04T01:41:21;14.88;;;8.63;;
20348;SDS011;10332;50.208;18.988;2022-11-04T01:43:56;13.90;;;8.52;;
20348;SDS011;10332;50.208;18.988;2022-11-04T01:49:25;13.90;;;8.00;;
20348;SDS011;10332;50.208;18.988;2022-11-04T01:52:06;13.48;;;8.30;;
20348;SDS011;10332;50.208;18.988;2022-11-04T01:54:40;13.23;;;8.35;;
20348;SDS011;10332;50.208;18.988;2022-11-04T01:57:16;13.88;;;8.80;;
20348;SDS011;10332;50.208;18.988;2022-11-04T01:59:49;13.80;;;8.13;;
20348;SDS011;10332;50.208;18.988;2022-11-04T02:02:17;12.85;;;7.95;;
20348;SDS011;10332;50.208;18.988;2022-11-04T02:04:44;13.10;;;8.02;;
20348;SDS011;10332;50.208;18.988;2022-11-04T02:07:12;12.52;;;7.57;;
20348;SDS011;10332;50.208;18.988;2022-11-04T02:09:40;12.73;;;7.57;;
20348;SDS011;10332;50.208;18.988;2022-11-04T02:12:09;11.07;;;7.22;;
20348;SDS011;10332;50.208;18.988;2022-11-04T02:14:55;14.43;;;7.40;;
20348;SDS011;10332;50.208;18.988;2022-11-04T02:17:37;14.27;;;7.97;;
20348;SDS011;10332;50.208;18.988;2022-11-04T02:20:53;12.95;;;7.95;;
20348;SDS011;10332;50.208;18.988;2022-11-04T02:26:59;11.55;;;7.57;;
20348;SDS011;10332;50.208;18.988;2022-11-04T02:35:40;11.82;;;7.18;;
20348;SDS011;10332;50.208;18.988;2022-11-04T02:38:32;13.55;;;7.78;;
20348;SDS011;10332;50.208;18.988;2022-11-04T02:46:52;11.38;;;7.60;;
20348;SDS011;10332;50.208;18.988;2022-11-04T02:49:37;13.70;;;8.52;;
20348;SDS011;10332;50.208;18.988;2022-11-04T02:55:21;16.33;;;9.15;;
20348;SDS011;10332;50.208;18.988;2022-11-04T02:57:57;13.70;;;8.32;;
20348;SDS011;10332;50.208;18.988;2022-11-04T03:00:27;13.82;;;8.95;;
20348;SDS011;10332;50.208;18.988;2022-11-04T03:02:59;13.95;;;8.98;;
20348;SDS011;10332;50.208;18.988;2022-11-04T03:05:37;14.60;;;9.18;;
20348;SDS011;10332;50.208;18.988;2022-11-04T03:08:17;15.43;;;8.82;;
20348;SDS011;10332;50.208;18.988;2022-11-04T03:10:58;12.55;;;8.00;;
20348;SDS011;10332;50.208;18.988;2022-11-04T03:16:47;13.65;;;8.23;;
20348;SDS011;10332;50.208;18.988;2022-11-04T03:22:26;13.93;;;8.40;;
20348;SDS011;10332;50.208;18.988;2022-11-04T03:24:58;12.55;;;7.70;;
20348;SDS011;10332;50.208;18.988;2022-11-04T03:27:49;14.93;;;8.40;;
20348;SDS011;10332;50.208;18.988;2022-11-04T03:30:38;16.60;;;8.43;;
20348;SDS011;10332;50.208;18.988;2022-11-04T03:33:56;14.77;;;8.77;;
20348;SDS011;10332;50.208;18.988;2022-11-04T03:36:13;16.45;;;9.00;;
20348;SDS011;10332;50.208;18.988;2022-11-04T03:38:41;17.15;;;9.05;;
20348;SDS011;10332;50.208;18.988;2022-11-04T03:41:15;14.40;;;8.90;;
20348;SDS011;10332;50.208;18.988;2022-11-04T03:43:59;14.18;;;8.20;;
20348;SDS011;10332;50.208;18.988;2022-11-04T03:46:27;15.95;;;9.30;;
20348;SDS011;10332;50.208;18.988;2022-11-04T03:48:54;15.07;;;8.98;;
20348;SDS011;10332;50.208;18.988;2022-11-04T03:51:25;16.67;;;9.02;;
20348;SDS011;10332;50.208;18.988;2022-11-04T03:53:53;14.88;;;8.80;;
20348;SDS011;10332;50.208;18.988;2022-11-04T04:01:51;12.95;;;8.80;;
20348;SDS011;10332;50.208;18.988;2022-11-04T04:04:33;13.98;;;9.35;;
20348;SDS011;10332;50.208;18.988;2022-11-04T04:07:11;16.25;;;9.77;;
20348;SDS011;10332;50.208;18.988;2022-11-04T04:09:53;14.57;;;9.13;;
20348;SDS011;10332;50.208;18.988;2022-11-04T04:12:33;15.80;;;9.98;;
20348;SDS011;10332;50.208;18.988;2022-11-04T04:15:07;13.70;;;8.68;;
20348;SDS011;10332;50.208;18.988;2022-11-04T04:17:55;16.58;;;8.85;;
20348;SDS011;10332;50.208;18.988;2022-11-04T04:20:32;13.23;;;8.60;;
20348;SDS011;10332;50.208;18.988;2022-11-04T04:23:05;15.23;;;8.38;;
20348;SDS011;10332;50.208;18.988;2022-11-04T04:26:04;15.70;;;7.72;;
20348;SDS011;10332;50.208;18.988;2022-11-04T04:28:54;11.88;;;7.30;;
20348;SDS011;10332;50.208;18.988;2022-11-04T04:31:24;15.68;;;8.35;;
20348;SDS011;10332;50.208;18.988;2022-11-04T04:34:18;13.23;;;7.68;;
20348;SDS011;10332;50.208;18.988;2022-11-04T04:39:40;12.10;;;7.90;;
20348;SDS011;10332;50.208;18.988;2022-11-04T04:42:32;12.45;;;8.02;;
20348;SDS011;10332;50.208;18.988;2022-11-04T04:45:20;12.40;;;7.78;;
20348;SDS011;10332;50.208;18.988;2022-11-04T04:47:55;12.73;;;7.43;;
20348;SDS011;10332;50.208;18.988;2022-11-04T04:50:24;15.52;;;8.73;;
20348;SDS011;10332;50.208;18.988;2022-11-04T04:52:57;13.57;;;8.18;;
20348;SDS011;10332;50.208;18.988;2022-11-04T04:55:26;12.15;;;7.55;;
20348;SDS011;10332;50.208;18.988;2022-11-04T04:57:54;13.68;;;8.35;;
20348;SDS011;10332;50.208;18.988;2022-11-04T05:00:21;13.38;;;8.00;;
20348;SDS011;10332;50.208;18.988;2022-11-04T05:02:49;12.88;;;7.30;;
20348;SDS011;10332;50.208;18.988;2022-11-04T05:05:16;13.70;;;8.77;;
20348;SDS011;10332;50.208;18.988;2022-11-04T05:07:45;11.15;;;6.93;;
20348;SDS011;10332;50.208;18.988;2022-11-04T05:10:13;13.55;;;8.00;;
20348;SDS011;10332;50.208;18.988;2022-11-04T05:12:43;12.30;;;7.85;;
20348;SDS011;10332;50.208;18.988;2022-11-04T05:15:29;13.38;;;7.70;;
20348;SDS011;10332;50.208;18.988;2022-11-04T05:17:58;12.13;;;7.97;;
20348;SDS011;10332;50.208;18.988;2022-11-04T05:20:27;13.50;;;7.80;;
20348;SDS011;10332;50.208;18.988;2022-11-04T05:22:56;14.70;;;8.05;;
20348;SDS011;10332;50.208;18.988;2022-11-04T05:25:23;11.20;;;7.53;;
20348;SDS011;10332;50.208;18.988;2022-11-04T05:27:50;11.55;;;7.43;;
20348;SDS011;10332;50.208;18.988;2022-11-04T05:30:18;11.60;;;7.63;;
20348;SDS011;10332;50.208;18.988;2022-11-04T05:32:45;12.38;;;7.10;;
20348;SDS011;10332;50.208;18.988;2022-11-04T05:35:13;13.57;;;7.10;;
20348;SDS011;10332;50.208;18.988;2022-11-04T05:37:40;14.00;;;7.03;;
20348;SDS011;10332;50.208;18.988;2022-11-04T05:40:08;12.23;;;6.78;;
20348;SDS011;10332;50.208;18.988;2022-11-04T05:42:36;11.52;;;6.75;;
20348;SDS011;10332;50.208;18.988;2022-11-04T05:45:04;10.23;;;6.60;;
20348;SDS011;10332;50.208;18.988;2022-11-04T05:47:32;11.68;;;7.00;;
20348;SDS011;10332;50.208;18.988;2022-11-04T05:49:59;12.98;;;6.47;;
20348;SDS011;10332;50.208;18.988;2022-11-04T05:52:26;11.50;;;6.78;;
20348;SDS011;10332;50.208;18.988;2022-11-04T05:54:54;11.13;;;6.78;;
20348;SDS011;10332;50.208;18.988;2022-11-04T05:57:21;8.25;;;5.20;;
20348;SDS011;10332;50.208;18.988;2022-11-04T05:59:49;8.90;;;5.57;;
20348;SDS011;10332;50.208;18.988;2022-11-04T06:02:16;9.35;;;5.32;;
20348;SDS011;10332;50.208;18.988;2022-11-04T06:04:43;8.35;;;5.50;;
20348;SDS011;10332;50.208;18.988;2022-11-04T06:07:11;11.05;;;5.70;;
20348;SDS011;10332;50.208;18.988;2022-11-04T06:09:39;9.35;;;5.65;;
20348;SDS011;10332;50.208;18.988;2022-11-04T06:12:07;10.60;;;5.60;;
20348;SDS011;10332;50.208;18.988;2022-11-04T06:14:37;10.57;;;5.50;;
20348;SDS011;10332;50.208;18.988;2022-11-04T06:17:04;9.25;;;5.53;;
20348;SDS011;10332;50.208;18.988;2022-11-04T06:19:32;9.68;;;5.45;;
20348;SDS011;10332;50.208;18.988;2022-11-04T06:21:59;12.70;;;6.05;;
20348;SDS011;10332;50.208;18.988;2022-11-04T06:24:45;9.18;;;5.68;;
20348;SDS011;10332;50.208;18.988;2022-11-04T06:27:13;8.05;;;5.63;;
20348;SDS011;10332;50.208;18.988;2022-11-04T06:29:41;8.45;;;5.65;;
20348;SDS011;10332;50.208;18.988;2022-11-04T06:32:09;10.77;;;5.28;;
20348;SDS011;10332;50.208;18.988;2022-11-04T06:34:40;9.45;;;5.35;;
20348;SDS011;10332;50.208;18.988;2022-11-04T06:37:08;11.25;;;5.97;;
20348;SDS011;10332;50.208;18.988;2022-11-04T06:39:36;9.20;;;5.43;;
20348;SDS011;10332;50.208;18.988;2022-11-04T06:42:03;9.73;;;6.15;;
20348;SDS011;10332;50.208;18.988;2022-11-04T06:44:31;11.15;;;6.00;;
20348;SDS011;10332;50.208;18.988;2022-11-04T06:47:02;8.35;;;5.95;;
20348;SDS011;10332;50.208;18.988;2022-11-04T06:49:30;10.75;;;6.38;;
20348;SDS011;10332;50.208;18.988;2022-11-04T06:51:57;11.07;;;6.78;;
20348;SDS011;10332;50.208;18.988;2022-11-04T06:54:24;9.70;;;6.30;;
20348;SDS011;10332;50.208;18.988;2022-11-04T06:56:52;10.15;;;6.32;;
20348;SDS011;10332;50.208;18.988;2022-11-04T06:59:19;10.38;;;6.70;;
20348;SDS011;10332;50.208;18.988;2022-11-04T07:01:48;11.43;;;6.15;;
20348;SDS011;10332;50.208;18.988;2022-11-04T07:04:18;9.88;;;6.32;;
20348;SDS011;10332;50.208;18.988;2022-11-04T07:06:45;14.20;;;7.40;;
20348;SDS011;10332;50.208;18.988;2022-11-04T07:09:13;11.38;;;6.60;;
20348;SDS011;10332;50.208;18.988;2022-11-04T07:11:41;10.90;;;7.25;;
20348;SDS011;10332;50.208;18.988;2022-11-04T07:14:11;12.70;;;6.72;;
20348;SDS011;10332;50.208;18.988;2022-11-04T07:16:39;10.82;;;6.53;;
20348;SDS011;10332;50.208;18.988;2022-11-04T07:19:07;9.32;;;6.65;;
20348;SDS011;10332;50.208;18.988;2022-11-04T07:21:34;12.80;;;6.80;;
20348;SDS011;10332;50.208;18.988;2022-11-04T07:24:02;12.32;;;6.88;;
20348;SDS011;10332;50.208;18.988;2022-11-04T07:26:29;24.00;;;14.60;;
20348;SDS011;10332;50.208;18.988;2022-11-04T07:28:56;17.63;;;10.60;;
20348;SDS011;10332;50.208;18.988;2022-11-04T07:31:26;12.45;;;7.82;;
20348;SDS011;10332;50.208;18.988;2022-11-04T07:33:54;11.45;;;6.32;;
20348;SDS011;10332;50.208;18.988;2022-11-04T07:36:21;14.00;;;7.50;;
20348;SDS011;10332;50.208;18.988;2022-11-04T07:38:49;11.25;;;6.85;;
20348;SDS011;10332;50.208;18.988;2022-11-04T07:41:16;10.25;;;6.70;;
20348;SDS011;10332;50.208;18.988;2022-11-04T07:43:47;11.60;;;6.80;;
20348;SDS011;10332;50.208;18.988;2022-11-04T07:46:17;10.27;;;6.90;;
20348;SDS011;10332;50.208;18.988;2022-11-04T07:48:46;12.23;;;7.03;;
20348;SDS011;10332;50.208;18.988;2022-11-04T07:51:15;14.07;;;6.90;;
20348;SDS011;10332;50.208;18.988;2022-11-04T07:53:46;8.98;;;6.32;;
20348;SDS011;10332;50.208;18.988;2022-11-04T07:56:13;13.13;;;6.68;;
20348;SDS011;10332;50.208;18.988;2022-11-04T07:58:41;10.00;;;6.40;;
20348;SDS011;10332;50.208;18.988;2022-11-04T08:01:10;12.05;;;6.65;;
20348;SDS011;10332;50.208;18.988;2022-11-04T08:03:42;11.13;;;6.15;;
20348;SDS011;10332;50.208;18.988;2022-11-04T08:06:10;8.90;;;5.50;;
20348;SDS011;10332;50.208;18.988;2022-11-04T08:08:40;11.52;;;6.88;;
20348;SDS011;10332;50.208;18.988;2022-11-04T08:11:10;10.45;;;6.55;;
20348;SDS011;10332;50.208;18.988;2022-11-04T08:13:44;10.70;;;6.75;;
20348;SDS011;10332;50.208;18.988;2022-11-04T08:16:13;10.85;;;6.80;;
20348;SDS011;10332;50.208;18.988;2022-11-04T08:18:47;11.80;;;6.72;;
20348;SDS011;10332;50.208;18.988;2022-11-04T08:21:18;14.23;;;8.43;;
20348;SDS011;10332;50.208;18.988;2022-11-04T08:23:46;15.63;;;9.45;;
20348;SDS011;10332;50.208;18.988;2022-11-04T08:26:17;13.18;;;7.47;;
20348;SDS011;10332;50.208;18.988;2022-11-04T08:28:46;34.28;;;21.65;;
20348;SDS011;10332;50.208;18.988;2022-11-04T08:31:19;20.42;;;11.82;;
20348;SDS011;10332;50.208;18.988;2022-11-04T08:33:52;10.75;;;6.80;;
20348;SDS011;10332;50.208;18.988;2022-11-04T08:36:23;11.45;;;7.03;;
20348;SDS011;10332;50.208;18.988;2022-11-04T08:38:55;12.77;;;7.50;;
20348;SDS011;10332;50.208;18.988;2022-11-04T08:41:25;12.38;;;7.75;;
20348;SDS011;10332;50.208;18.988;2022-11-04T08:43:56;15.85;;;8.82;;
20348;SDS011;10332;50.208;18.988;2022-11-04T08:46:27;16.63;;;10.15;;
20348;SDS011;10332;50.208;18.988;2022-11-04T08:48:57;12.85;;;9.15;;
20348;SDS011;10332;50.208;18.988;2022-11-04T08:51:25;14.20;;;8.85;;
20348;SDS011;10332;50.208;18.988;2022-11-04T08:53:55;17.13;;;9.27;;
20348;SDS011;10332;50.208;18.988;2022-11-04T08:58:55;11.82;;;8.00;;
20348;SDS011;10332;50.208;18.988;2022-11-04T09:01:24;9.80;;;7.25;;
20348;SDS011;10332;50.208;18.988;2022-11-04T09:04:01;12.55;;;7.35;;
20348;SDS011;10332;50.208;18.988;2022-11-04T09:06:32;13.65;;;7.97;;
20348;SDS011;10332;50.208;18.988;2022-11-04T09:09:05;13.63;;;7.13;;
20348;SDS011;10332;50.208;18.988;2022-11-04T09:11:39;10.30;;;6.68;;
20348;SDS011;10332;50.208;18.988;2022-11-04T09:14:09;10.57;;;6.47;;
20348;SDS011;10332;50.208;18.988;2022-11-04T09:16:37;11.60;;;7.25;;
20348;SDS011;10332;50.208;18.988;2022-11-04T09:19:07;10.10;;;6.85;;
20348;SDS011;10332;50.208;18.988;2022-11-04T09:21:35;10.48;;;6.53;;
20348;SDS011;10332;50.208;18.988;2022-11-04T09:24:03;11.38;;;6.22;;
20348;SDS011;10332;50.208;18.988;2022-11-04T09:26:31;9.35;;;6.60;;
20348;SDS011;10332;50.208;18.988;2022-11-04T09:28:59;8.73;;;5.63;;
20348;SDS011;10332;50.208;18.988;2022-11-04T09:31:28;11.93;;;6.88;;
20348;SDS011;10332;50.208;18.988;2022-11-04T09:33:56;10.10;;;6.68;;
20348;SDS011;10332;50.208;18.988;2022-11-04T09:36:24;11.73;;;6.75;;
20348;SDS011;10332;50.208;18.988;2022-11-04T09:38:52;10.57;;;6.57;;
20348;SDS011;10332;50.208;18.988;2022-11-04T09:46:55;10.20;;;5.90;;
20348;SDS011;10332;50.208;18.988;2022-11-04T09:49:29;9.27;;;5.78;;
20348;SDS011;10332;50.208;18.988;2022-11-04T09:52:05;9.18;;;5.85;;
20348;SDS011;10332;50.208;18.988;2022-11-04T09:54:49;7.18;;;5.22;;
20348;SDS011;10332;50.208;18.988;2022-11-04T09:57:37;12.18;;;6.18;;
20348;SDS011;10332;50.208;18.988;2022-11-04T10:00:05;9.20;;;6.00;;
20348;SDS011;10332;50.208;18.988;2022-11-04T10:02:45;10.27;;;6.70;;
20348;SDS011;10332;50.208;18.988;2022-11-04T10:26:14;9.68;;;6.47;;
20348;SDS011;10332;50.208;18.988;2022-11-04T10:28:55;7.97;;;5.50;;
20348;SDS011;10332;50.208;18.988;2022-11-04T10:31:39;8.32;;;5.32;;
20348;SDS011;10332;50.208;18.988;2022-11-04T10:34:27;9.25;;;5.82;;
20348;SDS011;10332;50.208;18.988;2022-11-04T10:37:15;10.15;;;5.80;;
20348;SDS011;10332;50.208;18.988;2022-11-04T10:39:44;10.35;;;5.95;;
20348;SDS011;10332;50.208;18.988;2022-11-04T10:42:13;13.32;;;9.75;;
20348;SDS011;10332;50.208;18.988;2022-11-04T10:44:48;13.20;;;8.75;;
20348;SDS011;10332;50.208;18.988;2022-11-04T10:50:21;10.90;;;6.72;;
20348;SDS011;10332;50.208;18.988;2022-11-04T10:53:13;12.25;;;7.47;;
20348;SDS011;10332;50.208;18.988;2022-11-04T10:56:03;11.65;;;7.53;;
20348;SDS011;10332;50.208;18.988;2022-11-04T10:58:59;10.50;;;7.47;;
20348;SDS011;10332;50.208;18.988;2022-11-04T11:01:56;12.25;;;7.35;;
20348;SDS011;10332;50.208;18.988;2022-11-04T11:07:02;13.82;;;9.02;;
20348;SDS011;10332;50.208;18.988;2022-11-04T11:09:35;16.75;;;9.70;;
20348;SDS011;10332;50.208;18.988;2022-11-04T11:12:23;11.70;;;8.20;;
20348;SDS011;10332;50.208;18.988;2022-11-04T11:15:25;14.35;;;9.15;;
20348;SDS011;10332;50.208;18.988;2022-11-04T11:17:59;14.43;;;8.02;;
20348;SDS011;10332;50.208;18.988;2022-11-04T11:20:38;12.27;;;8.32;;
20348;SDS011;10332;50.208;18.988;2022-11-04T11:26:17;14.32;;;8.27;;
20348;SDS011;10332;50.208;18.988;2022-11-04T11:28:57;14.13;;;8.52;;
20348;SDS011;10332;50.208;18.988;2022-11-04T11:31:37;14.00;;;8.90;;
20348;SDS011;10332;50.208;18.988;2022-11-04T11:34:14;16.27;;;10.30;;
20348;SDS011;10332;50.208;18.988;2022-11-04T11:36:46;15.55;;;9.23;;
20348;SDS011;10332;50.208;18.988;2022-11-04T11:39:23;12.40;;;8.40;;
20348;SDS011;10332;50.208;18.988;2022-11-04T11:44:38;13.80;;;9.20;;
20348;SDS011;10332;50.208;18.988;2022-11-04T11:52:41;15.05;;;10.40;;
20348;SDS011;10332;50.208;18.988;2022-11-04T12:01:33;13.63;;;8.60;;
20348;SDS011;10332;50.208;18.988;2022-11-04T12:04:08;12.20;;;7.85;;
20348;SDS011;10332;50.208;18.988;2022-11-04T12:07:20;12.82;;;9.07;;
20348;SDS011;10332;50.208;18.988;2022-11-04T12:10:49;12.73;;;8.80;;
20348;SDS011;10332;50.208;18.988;2022-11-04T12:14:26;9.98;;;7.30;;
20348;SDS011;10332;50.208;18.988;2022-11-04T12:23:12;13.65;;;8.25;;
20348;SDS011;10332;50.208;18.988;2022-11-04T12:29:07;17.00;;;10.93;;
20348;SDS011;10332;50.208;18.988;2022-11-04T12:32:30;16.90;;;10.80;;
20348;SDS011;10332;50.208;18.988;2022-11-04T12:40:52;20.15;;;13.07;;
20348;SDS011;10332;50.208;18.988;2022-11-04T12:44:06;15.45;;;10.65;;
20348;SDS011;10332;50.208;18.988;2022-11-04T12:47:09;13.23;;;7.93;;
20348;SDS011;10332;50.208;18.988;2022-11-04T12:50:02;14.05;;;9.18;;
20348;SDS011;10332;50.208;18.988;2022-11-04T13:01:40;10.43;;;7.50;;
20348;SDS011;10332;50.208;18.988;2022-11-04T13:04:17;12.02;;;8.50;;
20348;SDS011;10332;50.208;18.988;2022-11-04T13:09:36;13.38;;;8.60;;
20348;SDS011;10332;50.208;18.988;2022-11-04T13:12:27;11.40;;;8.07;;
20348;SDS011;10332;50.208;18.988;2022-11-04T13:15:02;10.63;;;8.00;;
20348;SDS011;10332;50.208;18.988;2022-11-04T13:17:42;12.20;;;8.15;;
20348;SDS011;10332;50.208;18.988;2022-11-04T13:20:16;9.25;;;7.10;;
20348;SDS011;10332;50.208;18.988;2022-11-04T13:23:01;11.85;;;7.50;;
20348;SDS011;10332;50.208;18.988;2022-11-04T13:25:43;11.23;;;7.63;;
20348;SDS011;10332;50.208;18.988;2022-11-04T13:28:16;11.93;;;7.68;;
20348;SDS011;10332;50.208;18.988;2022-11-04T13:33:32;13.35;;;9.00;;
20348;SDS011;10332;50.208;18.988;2022-11-04T13:39:19;12.98;;;8.63;;
20348;SDS011;10332;50.208;18.988;2022-11-04T13:44:56;13.45;;;9.27;;
20348;SDS011;10332;50.208;18.988;2022-11-04T13:47:36;11.20;;;8.20;;
20348;SDS011;10332;50.208;18.988;2022-11-04T13:53:07;14.60;;;10.30;;
20348;SDS011;10332;50.208;18.988;2022-11-04T13:55:50;12.70;;;9.32;;
20348;SDS011;10332;50.208;18.988;2022-11-04T13:58:23;13.93;;;9.20;;
20348;SDS011;10332;50.208;18.988;2022-11-04T14:04:02;13.35;;;8.60;;
20348;SDS011;10332;50.208;18.988;2022-11-04T14:06:52;11.25;;;8.43;;
20348;SDS011;10332;50.208;18.988;2022-11-04T14:14:36;17.65;;;10.80;;
20348;SDS011;10332;50.208;18.988;2022-11-04T14:22:48;18.55;;;12.02;;
20348;SDS011;10332;50.208;18.988;2022-11-04T14:25:27;15.05;;;10.85;;
20348;SDS011;10332;50.208;18.988;2022-11-04T14:28:02;17.90;;;12.18;;
20348;SDS011;10332;50.208;18.988;2022-11-04T14:30:58;16.00;;;11.43;;
20348;SDS011;10332;50.208;18.988;2022-11-04T14:36:24;18.55;;;11.65;;
20348;SDS011;10332;50.208;18.988;2022-11-04T14:41:56;22.85;;;13.50;;
20348;SDS011;10332;50.208;18.988;2022-11-04T14:47:20;17.33;;;12.20;;
20348;SDS011;10332;50.208;18.988;2022-11-04T14:52:26;19.60;;;12.38;;
20348;SDS011;10332;50.208;18.988;2022-11-04T14:55:21;19.55;;;12.63;;
20348;SDS011;10332;50.208;18.988;2022-11-04T14:58:22;17.65;;;11.27;;
20348;SDS011;10332;50.208;18.988;2022-11-04T15:00:51;17.45;;;11.80;;
20348;SDS011;10332;50.208;18.988;2022-11-04T15:03:24;21.17;;;12.98;;
20348;SDS011;10332;50.208;18.988;2022-11-04T15:06:22;16.77;;;11.05;;
20348;SDS011;10332;50.208;18.988;2022-11-04T15:09:22;16.55;;;11.90;;
20348;SDS011;10332;50.208;18.988;2022-11-04T15:11:59;21.23;;;13.50;;
20348;SDS011;10332;50.208;18.988;2022-11-04T15:15:01;24.38;;;14.25;;
20348;SDS011;10332;50.208;18.988;2022-11-04T15:18:07;21.35;;;13.95;;
20348;SDS011;10332;50.208;18.988;2022-11-04T15:20:57;18.88;;;12.23;;
20348;SDS011;10332;50.208;18.988;2022-11-04T15:23:35;20.67;;;12.80;;
20348;SDS011;10332;50.208;18.988;2022-11-04T15:26:19;43.47;;;22.17;;
20348;SDS011;10332;50.208;18.988;2022-11-04T15:28:57;41.95;;;21.23;;
20348;SDS011;10332;50.208;18.988;2022-11-04T15:31:30;28.65;;;16.27;;
20348;SDS011;10332;50.208;18.988;2022-11-04T15:34:00;26.02;;;15.20;;
20348;SDS011;10332;50.208;18.988;2022-11-04T15:36:40;30.25;;;17.80;;
20348;SDS011;10332;50.208;18.988;2022-11-04T15:39:10;40.67;;;20.15;;
20348;SDS011;10332;50.208;18.988;2022-11-04T15:41:59;42.20;;;20.05;;
20348;SDS011;10332;50.208;18.988;2022-11-04T15:44:52;36.33;;;19.85;;
20348;SDS011;10332;50.208;18.988;2022-11-04T15:47:23;27.95;;;17.42;;
20348;SDS011;10332;50.208;18.988;2022-11-04T15:50:00;33.10;;;18.95;;
20348;SDS011;10332;50.208;18.988;2022-11-04T15:52:47;30.13;;;17.13;;
20348;SDS011;10332;50.208;18.988;2022-11-04T15:55:22;28.73;;;17.45;;
20348;SDS011;10332;50.208;18.988;2022-11-04T15:57:53;24.92;;;16.00;;
20348;SDS011;10332;50.208;18.988;2022-11-04T16:00:23;24.25;;;15.30;;
20348;SDS011;10332;50.208;18.988;2022-11-04T16:02:54;26.00;;;15.95;;
20348;SDS011;10332;50.208;18.988;2022-11-04T16:05:27;31.27;;;19.58;;
20348;SDS011;10332;50.208;18.988;2022-11-04T16:10:49;29.15;;;18.25;;
20348;SDS011;10332;50.208;18.988;2022-11-04T16:13:33;27.08;;;18.00;;
20348;SDS011;10332;50.208;18.988;2022-11-04T16:21:06;23.05;;;15.30;;
20348;SDS011;10332;50.208;18.988;2022-11-04T16:23:43;22.40;;;14.43;;
20348;SDS011;10332;50.208;18.988;2022-11-04T16:26:22;21.80;;;14.45;;
20348;SDS011;10332;50.208;18.988;2022-11-04T16:28:54;25.50;;;15.60;;
20348;SDS011;10332;50.208;18.988;2022-11-04T16:31:26;31.75;;;18.42;;
20348;SDS011;10332;50.208;18.988;2022-11-04T16:34:00;31.55;;;18.98;;
20348;SDS011;10332;50.208;18.988;2022-11-04T16:36:28;28.08;;;16.95;;
20348;SDS011;10332;50.208;18.988;2022-11-04T16:39:02;25.92;;;16.17;;
20348;SDS011;10332;50.208;18.988;2022-11-04T16:41:34;31.50;;;16.65;;
20348;SDS011;10332;50.208;18.988;2022-11-04T16:44:13;29.50;;;15.90;;
20348;SDS011;10332;50.208;18.988;2022-11-04T16:46:46;31.77;;;18.55;;
20348;SDS011;10332;50.208;18.988;2022-11-04T16:49:14;27.27;;;15.52;;
20348;SDS011;10332;50.208;18.988;2022-11-04T16:51:44;24.20;;;15.35;;
20348;SDS011;10332;50.208;18.988;2022-11-04T16:54:15;29.38;;;16.20;;
20348;SDS011;10332;50.208;18.988;2022-11-04T16:56:42;28.33;;;14.82;;
20348;SDS011;10332;50.208;18.988;2022-11-04T16:59:11;24.67;;;14.80;;
20348;SDS011;10332;50.208;18.988;2022-11-04T17:01:38;22.45;;;13.63;;
20348;SDS011;10332;50.208;18.988;2022-11-04T17:04:06;24.73;;;13.93;;
20348;SDS011;10332;50.208;18.988;2022-11-04T17:06:34;21.92;;;13.07;;
20348;SDS011;10332;50.208;18.988;2022-11-04T17:09:03;26.52;;;14.48;;
20348;SDS011;10332;50.208;18.988;2022-11-04T17:11:43;22.17;;;14.13;;
20348;SDS011;10332;50.208;18.988;2022-11-04T17:14:11;21.38;;;14.32;;
20348;SDS011;10332;50.208;18.988;2022-11-04T17:16:38;25.23;;;13.80;;
20348;SDS011;10332;50.208;18.988;2022-11-04T17:19:07;23.50;;;13.25;;
20348;SDS011;10332;50.208;18.988;2022-11-04T17:21:41;22.05;;;14.60;;
20348;SDS011;10332;50.208;18.988;2022-11-04T17:24:11;22.77;;;15.20;;
20348;SDS011;10332;50.208;18.988;2022-11-04T17:26:39;26.20;;;14.85;;
20348;SDS011;10332;50.208;18.988;2022-11-04T17:29:06;23.98;;;14.60;;
20348;SDS011;10332;50.208;18.988;2022-11-04T17:31:41;26.33;;;15.27;;
20348;SDS011;10332;50.208;18.988;2022-11-04T17:34:08;24.25;;;15.23;;
20348;SDS011;10332;50.208;18.988;2022-11-04T17:36:36;25.30;;;15.38;;
20348;SDS011;10332;50.208;18.988;2022-11-04T17:39:04;23.65;;;13.82;;
20348;SDS011;10332;50.208;18.988;2022-11-04T17:41:31;22.25;;;13.30;;
20348;SDS011;10332;50.208;18.988;2022-11-04T17:44:17;21.08;;;14.02;;